Terminal Aerodrome Forecast
Issued by NWS Tallahassee, FL

Home | Current Version | Previous Version | Text Only | Print | Product List | Glossary On
Versions: 1 2 3 4 5 6 7 8 9 10 11 12 13 14 15 16 17 18 19 20 21
948
FTUS42 KTAE 231124
TAFTLH
TAF
KTLH 231124Z 2312/2412 00000KT P6SM FEW060
     FM231400 16006KT P6SM VCSH BKN040
     FM231600 18010KT 6SM -SHRA VCTS BKN030CB
     FM240000 16004KT P6SM BKN030=

USA.gov is the U.S. government's official web portal to all federal, state and local government web resources and services.